sensor_id;sensor_type;location;lat;lon;timestamp;temperature;humidity
5466;DHT22;2755;50.728;7.108;2023-02-15T00:04:23;2.50;99.90
5466;DHT22;2755;50.728;7.108;2023-02-15T00:06:49;1.90;99.90
5466;DHT22;2755;50.728;7.108;2023-02-15T00:09:15;2.20;99.90
5466;DHT22;2755;50.728;7.108;2023-02-15T00:11:41;2.30;99.90
5466;DHT22;2755;50.728;7.108;2023-02-15T00:14:13;2.50;99.90
5466;DHT22;2755;50.728;7.108;2023-02-15T00:16:40;2.30;99.90
5466;DHT22;2755;50.728;7.108;2023-02-15T00:19:06;2.40;99.90
5466;DHT22;2755;50.728;7.108;2023-02-15T00:21:34;2.20;99.90
5466;DHT22;2755;50.728;7.108;2023-02-15T00:24:01;2.50;99.90
5466;DHT22;2755;50.728;7.108;2023-02-15T00:26:27;2.60;99.90
5466;DHT22;2755;50.728;7.108;2023-02-15T00:28:53;2.70;99.90
5466;DHT22;2755;50.728;7.108;2023-02-15T00:31:20;2.30;99.90
5466;DHT22;2755;50.728;7.108;2023-02-15T00:33:46;2.30;99.90
5466;DHT22;2755;50.728;7.108;2023-02-15T00:36:12;2.30;99.90
5466;DHT22;2755;50.728;7.108;2023-02-15T00:38:38;2.30;99.90
5466;DHT22;2755;50.728;7.108;2023-02-15T00:41:05;2.20;99.90
5466;DHT22;2755;50.728;7.108;2023-02-15T00:43:32;2.20;99.90
5466;DHT22;2755;50.728;7.108;2023-02-15T00:45:58;2.60;99.90
5466;DHT22;2755;50.728;7.108;2023-02-15T00:48:23;1.90;99.90
5466;DHT22;2755;50.728;7.108;2023-02-15T00:50:53;2.40;99.90
5466;DHT22;2755;50.728;7.108;2023-02-15T00:53:20;2.10;99.90
5466;DHT22;2755;50.728;7.108;2023-02-15T00:55:45;2.10;99.90
5466;DHT22;2755;50.728;7.108;2023-02-15T00:58:12;2.00;99.90
5466;DHT22;2755;50.728;7.108;2023-02-15T01:00:39;2.20;99.90
5466;DHT22;2755;50.728;7.108;2023-02-15T01:03:04;1.80;99.90
5466;DHT22;2755;50.728;7.108;2023-02-15T01:05:31;2.00;99.90
5466;DHT22;2755;50.728;7.108;2023-02-15T01:07:58;2.00;99.90
5466;DHT22;2755;50.728;7.108;2023-02-15T01:10:24;1.40;99.90
5466;DHT22;2755;50.728;7.108;2023-02-15T01:12:51;1.60;99.90
5466;DHT22;2755;50.728;7.108;2023-02-15T01:17:42;2.00;99.90
5466;DHT22;2755;50.728;7.108;2023-02-15T01:20:11;1.80;99.90
5466;DHT22;2755;50.728;7.108;2023-02-15T01:22:37;1.70;99.90
5466;DHT22;2755;50.728;7.108;2023-02-15T01:25:03;1.70;99.90
5466;DHT22;2755;50.728;7.108;2023-02-15T01:27:28;2.10;99.90
5466;DHT22;2755;50.728;7.108;2023-02-15T01:29:56;1.60;99.90
5466;DHT22;2755;50.728;7.108;2023-02-15T01:34:47;1.70;99.90
5466;DHT22;2755;50.728;7.108;2023-02-15T01:37:13;1.70;99.90
5466;DHT22;2755;50.728;7.108;2023-02-15T01:39:38;2.20;99.90
5466;DHT22;2755;50.728;7.108;2023-02-15T01:42:11;1.50;99.90
5466;DHT22;2755;50.728;7.108;2023-02-15T01:47:10;1.50;99.90
5466;DHT22;2755;50.728;7.108;2023-02-15T01:49:38;1.60;99.90
5466;DHT22;2755;50.728;7.108;2023-02-15T01:52:07;1.60;99.90
5466;DHT22;2755;50.728;7.108;2023-02-15T01:54:36;1.40;99.90
5466;DHT22;2755;50.728;7.108;2023-02-15T01:57:05;1.90;99.90
5466;DHT22;2755;50.728;7.108;2023-02-15T01:59:35;1.40;99.90
5466;DHT22;2755;50.728;7.108;2023-02-15T02:02:05;1.40;99.90
5466;DHT22;2755;50.728;7.108;2023-02-15T02:04:40;1.30;99.90
5466;DHT22;2755;50.728;7.108;2023-02-15T02:07:07;1.90;99.90
5466;DHT22;2755;50.728;7.108;2023-02-15T02:09:35;1.50;99.90
5466;DHT22;2755;50.728;7.108;2023-02-15T02:12:01;1.90;99.90
5466;DHT22;2755;50.728;7.108;2023-02-15T02:14:27;1.20;99.90
5466;DHT22;2755;50.728;7.108;2023-02-15T02:17:00;1.60;99.90
5466;DHT22;2755;50.728;7.108;2023-02-15T02:20:07;1.80;99.90
5466;DHT22;2755;50.728;7.108;2023-02-15T02:26:04;1.30;99.90
5466;DHT22;2755;50.728;7.108;2023-02-15T02:36:49;1.50;99.90
5466;DHT22;2755;50.728;7.108;2023-02-15T02:41:45;1.10;99.90
5466;DHT22;2755;50.728;7.108;2023-02-15T02:44:44;1.10;99.90
5466;DHT22;2755;50.728;7.108;2023-02-15T02:47:19;1.20;99.90
5466;DHT22;2755;50.728;7.108;2023-02-15T02:49:47;1.30;99.90
5466;DHT22;2755;50.728;7.108;2023-02-15T02:52:43;0.00;99.90
5466;DHT22;2755;50.728;7.108;2023-02-15T02:55:27;1.10;99.90
5466;DHT22;2755;50.728;7.108;2023-02-15T02:58:00;1.50;99.90
5466;DHT22;2755;50.728;7.108;2023-02-15T03:00:36;0.50;99.90
5466;DHT22;2755;50.728;7.108;2023-02-15T03:03:08;0.90;99.90
5466;DHT22;2755;50.728;7.108;2023-02-15T03:05:38;0.70;99.90
5466;DHT22;2755;50.728;7.108;2023-02-15T03:08:07;1.00;99.90
5466;DHT22;2755;50.728;7.108;2023-02-15T03:10:36;1.10;99.90
5466;DHT22;2755;50.728;7.108;2023-02-15T03:13:03;1.20;99.90
5466;DHT22;2755;50.728;7.108;2023-02-15T03:15:35;0.70;99.90
5466;DHT22;2755;50.728;7.108;2023-02-15T03:18:27;1.00;99.90
5466;DHT22;2755;50.728;7.108;2023-02-15T03:20:55;1.40;99.90
5466;DHT22;2755;50.728;7.108;2023-02-15T03:23:25;1.40;99.90
5466;DHT22;2755;50.728;7.108;2023-02-15T03:26:03;0.90;99.90
5466;DHT22;2755;50.728;7.108;2023-02-15T03:28:36;1.20;99.90
5466;DHT22;2755;50.728;7.108;2023-02-15T03:31:05;0.70;99.90
5466;DHT22;2755;50.728;7.108;2023-02-15T03:33:33;0.60;99.90
5466;DHT22;2755;50.728;7.108;2023-02-15T03:36:53;0.70;99.90
5466;DHT22;2755;50.728;7.108;2023-02-15T03:38:59;0.50;99.90
5466;DHT22;2755;50.728;7.108;2023-02-15T03:41:32;0.80;99.90
5466;DHT22;2755;50.728;7.108;2023-02-15T03:44:08;0.40;99.90
5466;DHT22;2755;50.728;7.108;2023-02-15T03:46:49;0.70;99.90
5466;DHT22;2755;50.728;7.108;2023-02-15T03:52:17;0.90;99.90
5466;DHT22;2755;50.728;7.108;2023-02-15T03:54:44;0.80;99.90
5466;DHT22;2755;50.728;7.108;2023-02-15T03:57:16;0.80;99.90
5466;DHT22;2755;50.728;7.108;2023-02-15T04:00:03;0.80;99.90
5466;DHT22;2755;50.728;7.108;2023-02-15T04:03:18;1.00;99.90
5466;DHT22;2755;50.728;7.108;2023-02-15T04:05:47;0.90;99.90
5466;DHT22;2755;50.728;7.108;2023-02-15T04:08:13;0.60;99.90
5466;DHT22;2755;50.728;7.108;2023-02-15T04:10:39;0.50;99.90
5466;DHT22;2755;50.728;7.108;2023-02-15T04:13:29;0.90;99.90
5466;DHT22;2755;50.728;7.108;2023-02-15T04:15:54;1.00;99.90
5466;DHT22;2755;50.728;7.108;2023-02-15T04:18:33;0.90;99.90
5466;DHT22;2755;50.728;7.108;2023-02-15T04:21:19;0.70;99.90
5466;DHT22;2755;50.728;7.108;2023-02-15T04:24:03;0.50;99.90
5466;DHT22;2755;50.728;7.108;2023-02-15T04:26:48;0.70;99.90
5466;DHT22;2755;50.728;7.108;2023-02-15T04:29:14;0.50;99.90
5466;DHT22;2755;50.728;7.108;2023-02-15T04:31:41;0.70;99.90
5466;DHT22;2755;50.728;7.108;2023-02-15T04:34:06;0.60;99.90
5466;DHT22;2755;50.728;7.108;2023-02-15T04:36:32;0.50;99.90
5466;DHT22;2755;50.728;7.108;2023-02-15T04:41:23;1.20;99.90
5466;DHT22;2755;50.728;7.108;2023-02-15T04:43:49;0.60;99.90
5466;DHT22;2755;50.728;7.108;2023-02-15T04:46:14;0.60;99.90
5466;DHT22;2755;50.728;7.108;2023-02-15T04:48:40;0.70;99.90
5466;DHT22;2755;50.728;7.108;2023-02-15T04:51:08;0.90;99.90
5466;DHT22;2755;50.728;7.108;2023-02-15T04:53:34;0.70;99.90
5466;DHT22;2755;50.728;7.108;2023-02-15T04:56:01;0.20;99.90
5466;DHT22;2755;50.728;7.108;2023-02-15T04:58:26;0.70;99.90
5466;DHT22;2755;50.728;7.108;2023-02-15T05:00:55;0.40;99.90
5466;DHT22;2755;50.728;7.108;2023-02-15T05:03:21;0.40;99.90
5466;DHT22;2755;50.728;7.108;2023-02-15T05:05:47;0.40;99.90
5466;DHT22;2755;50.728;7.108;2023-02-15T05:08:12;0.40;99.90
5466;DHT22;2755;50.728;7.108;2023-02-15T05:10:38;0.60;99.90
5466;DHT22;2755;50.728;7.108;2023-02-15T05:13:04;1.00;99.90
5466;DHT22;2755;50.728;7.108;2023-02-15T05:15:29;0.60;99.90
5466;DHT22;2755;50.728;7.108;2023-02-15T05:20:21;0.50;99.90
5466;DHT22;2755;50.728;7.108;2023-02-15T05:25:12;0.40;99.90
5466;DHT22;2755;50.728;7.108;2023-02-15T05:27:56;0.50;99.90
5466;DHT22;2755;50.728;7.108;2023-02-15T05:30:40;0.00;99.90
5466;DHT22;2755;50.728;7.108;2023-02-15T05:33:07;0.70;99.90
5466;DHT22;2755;50.728;7.108;2023-02-15T05:35:33;0.50;99.90
5466;DHT22;2755;50.728;7.108;2023-02-15T05:37:59;0.50;99.90
5466;DHT22;2755;50.728;7.108;2023-02-15T05:40:25;0.50;99.90
5466;DHT22;2755;50.728;7.108;2023-02-15T05:45:16;0.90;99.90
5466;DHT22;2755;50.728;7.108;2023-02-15T05:47:42;0.60;99.90
5466;DHT22;2755;50.728;7.108;2023-02-15T05:50:08;0.20;99.90
5466;DHT22;2755;50.728;7.108;2023-02-15T05:52:34;1.30;99.90
5466;DHT22;2755;50.728;7.108;2023-02-15T05:55:00;0.70;99.90
5466;DHT22;2755;50.728;7.108;2023-02-15T05:57:26;1.00;99.90
5466;DHT22;2755;50.728;7.108;2023-02-15T05:59:52;0.80;99.90
5466;DHT22;2755;50.728;7.108;2023-02-15T06:02:17;0.50;99.90
5466;DHT22;2755;50.728;7.108;2023-02-15T06:07:09;0.10;99.90
5466;DHT22;2755;50.728;7.108;2023-02-15T06:12:01;0.70;99.90
5466;DHT22;2755;50.728;7.108;2023-02-15T06:14:26;0.50;99.90
5466;DHT22;2755;50.728;7.108;2023-02-15T06:16:52;0.50;99.90
5466;DHT22;2755;50.728;7.108;2023-02-15T06:21:44;0.90;99.90
5466;DHT22;2755;50.728;7.108;2023-02-15T06:24:10;0.50;99.90
5466;DHT22;2755;50.728;7.108;2023-02-15T06:26:36;0.70;99.90
5466;DHT22;2755;50.728;7.108;2023-02-15T06:33:54;0.40;99.90
5466;DHT22;2755;50.728;7.108;2023-02-15T06:36:29;0.20;99.90
5466;DHT22;2755;50.728;7.108;2023-02-15T06:38:55;0.50;99.90
5466;DHT22;2755;50.728;7.108;2023-02-15T06:41:20;0.70;99.90
5466;DHT22;2755;50.728;7.108;2023-02-15T06:43:46;0.70;99.90
5466;DHT22;2755;50.728;7.108;2023-02-15T06:46:12;0.50;99.90
5466;DHT22;2755;50.728;7.108;2023-02-15T06:56:03;0.30;99.90
5466;DHT22;2755;50.728;7.108;2023-02-15T06:58:38;0.70;99.90
5466;DHT22;2755;50.728;7.108;2023-02-15T07:01:04;0.50;99.90
5466;DHT22;2755;50.728;7.108;2023-02-15T07:03:30;-0.10;99.90
5466;DHT22;2755;50.728;7.108;2023-02-15T07:05:58;0.30;99.90
5466;DHT22;2755;50.728;7.108;2023-02-15T07:08:25;0.80;99.90
5466;DHT22;2755;50.728;7.108;2023-02-15T07:10:52;0.60;99.90
5466;DHT22;2755;50.728;7.108;2023-02-15T07:13:18;0.60;99.90
5466;DHT22;2755;50.728;7.108;2023-02-15T07:15:47;0.80;99.90
5466;DHT22;2755;50.728;7.108;2023-02-15T07:20:39;0.00;99.90
5466;DHT22;2755;50.728;7.108;2023-02-15T07:28:01;1.10;99.90
5466;DHT22;2755;50.728;7.108;2023-02-15T07:30:28;0.90;99.90
5466;DHT22;2755;50.728;7.108;2023-02-15T07:32:58;1.60;99.90
5466;DHT22;2755;50.728;7.108;2023-02-15T07:35:53;1.50;99.90
5466;DHT22;2755;50.728;7.108;2023-02-15T07:38:20;2.20;99.90
5466;DHT22;2755;50.728;7.108;2023-02-15T07:40:46;1.70;99.90
5466;DHT22;2755;50.728;7.108;2023-02-15T07:45:47;1.60;99.90
5466;DHT22;2755;50.728;7.108;2023-02-15T07:50:42;2.00;99.90
5466;DHT22;2755;50.728;7.108;2023-02-15T07:53:07;1.60;99.90
5466;DHT22;2755;50.728;7.108;2023-02-15T07:55:33;2.10;99.90
5466;DHT22;2755;50.728;7.108;2023-02-15T08:00:28;2.70;99.90
5466;DHT22;2755;50.728;7.108;2023-02-15T08:02:55;2.90;99.90
5466;DHT22;2755;50.728;7.108;2023-02-15T08:05:40;3.00;99.90
5466;DHT22;2755;50.728;7.108;2023-02-15T08:08:07;3.30;99.90
5466;DHT22;2755;50.728;7.108;2023-02-15T08:10:33;2.90;99.90
5466;DHT22;2755;50.728;7.108;2023-02-15T08:15:50;3.70;99.90
5466;DHT22;2755;50.728;7.108;2023-02-15T08:27:59;5.10;95.60
5466;DHT22;2755;50.728;7.108;2023-02-15T08:40:11;4.90;94.20
5466;DHT22;2755;50.728;7.108;2023-02-15T09:02:08;5.80;82.00
5466;DHT22;2755;50.728;7.108;2023-02-15T09:04:34;6.30;84.40
5466;DHT22;2755;50.728;7.108;2023-02-15T09:14:20;7.10;72.30
5466;DHT22;2755;50.728;7.108;2023-02-15T09:16:47;6.30;71.60
5466;DHT22;2755;50.728;7.108;2023-02-15T09:19:15;7.40;72.20
5466;DHT22;2755;50.728;7.108;2023-02-15T09:21:41;7.00;70.40
5466;DHT22;2755;50.728;7.108;2023-02-15T09:24:09;7.00;71.30
5466;DHT22;2755;50.728;7.108;2023-02-15T09:26:37;7.10;70.50
5466;DHT22;2755;50.728;7.108;2023-02-15T09:31:33;7.00;72.30
5466;DHT22;2755;50.728;7.108;2023-02-15T09:34:00;6.90;70.30
5466;DHT22;2755;50.728;7.108;2023-02-15T09:36:37;6.60;72.50
5466;DHT22;2755;50.728;7.108;2023-02-15T09:58:14;6.30;79.10
5466;DHT22;2755;50.728;7.108;2023-02-15T10:06:09;7.20;70.10
5466;DHT22;2755;50.728;7.108;2023-02-15T10:11:52;7.30;69.00
5466;DHT22;2755;50.728;7.108;2023-02-15T10:16:56;7.50;67.40
5466;DHT22;2755;50.728;7.108;2023-02-15T10:19:49;7.70;65.60
5466;DHT22;2755;50.728;7.108;2023-02-15T10:27:49;7.90;67.20
5466;DHT22;2755;50.728;7.108;2023-02-15T10:30:17;8.50;62.90
5466;DHT22;2755;50.728;7.108;2023-02-15T10:33:00;8.70;59.00
5466;DHT22;2755;50.728;7.108;2023-02-15T10:35:42;8.80;58.20
5466;DHT22;2755;50.728;7.108;2023-02-15T10:43:26;8.80;56.90
5466;DHT22;2755;50.728;7.108;2023-02-15T10:49:23;9.80;55.40
5466;DHT22;2755;50.728;7.108;2023-02-15T10:54:46;10.20;49.90
5466;DHT22;2755;50.728;7.108;2023-02-15T11:07:59;9.80;47.30
5466;DHT22;2755;50.728;7.108;2023-02-15T11:10:54;9.80;48.70
5466;DHT22;2755;50.728;7.108;2023-02-15T11:13:24;10.00;47.00
5466;DHT22;2755;50.728;7.108;2023-02-15T11:23:26;10.40;42.90
5466;DHT22;2755;50.728;7.108;2023-02-15T11:26:03;10.50;43.80
5466;DHT22;2755;50.728;7.108;2023-02-15T11:31:47;10.40;45.70
5466;DHT22;2755;50.728;7.108;2023-02-15T11:34:23;10.90;43.20
5466;DHT22;2755;50.728;7.108;2023-02-15T11:36:54;11.20;40.60
5466;DHT22;2755;50.728;7.108;2023-02-15T11:39:21;11.30;41.20
5466;DHT22;2755;50.728;7.108;2023-02-15T11:41:52;11.70;39.70
5466;DHT22;2755;50.728;7.108;2023-02-15T11:44:26;11.50;37.30
5466;DHT22;2755;50.728;7.108;2023-02-15T11:49:30;10.80;40.70
5466;DHT22;2755;50.728;7.108;2023-02-15T11:51:57;10.80;40.90
5466;DHT22;2755;50.728;7.108;2023-02-15T11:54:36;10.20;41.30
5466;DHT22;2755;50.728;7.108;2023-02-15T11:57:19;10.20;42.70
5466;DHT22;2755;50.728;7.108;2023-02-15T11:59:51;9.80;45.40
5466;DHT22;2755;50.728;7.108;2023-02-15T12:02:22;9.70;46.20
5466;DHT22;2755;50.728;7.108;2023-02-15T12:04:56;9.40;46.80
5466;DHT22;2755;50.728;7.108;2023-02-15T12:07:35;9.50;47.50
5466;DHT22;2755;50.728;7.108;2023-02-15T12:10:24;9.30;47.70
5466;DHT22;2755;50.728;7.108;2023-02-15T12:13:12;9.40;48.00
5466;DHT22;2755;50.728;7.108;2023-02-15T12:15:47;9.20;47.40
5466;DHT22;2755;50.728;7.108;2023-02-15T12:18:20;9.00;48.50
5466;DHT22;2755;50.728;7.108;2023-02-15T12:23:14;9.10;49.50
5466;DHT22;2755;50.728;7.108;2023-02-15T12:25:52;9.10;50.50
5466;DHT22;2755;50.728;7.108;2023-02-15T12:36:19;9.30;49.60
5466;DHT22;2755;50.728;7.108;2023-02-15T12:41:22;9.30;49.80
5466;DHT22;2755;50.728;7.108;2023-02-15T12:51:51;9.50;50.30
5466;DHT22;2755;50.728;7.108;2023-02-15T12:54:39;9.50;49.90
5466;DHT22;2755;50.728;7.108;2023-02-15T12:59:49;9.60;53.30
5466;DHT22;2755;50.728;7.108;2023-02-15T13:04:55;9.40;53.70
5466;DHT22;2755;50.728;7.108;2023-02-15T13:07:22;9.50;51.60
5466;DHT22;2755;50.728;7.108;2023-02-15T13:09:49;9.70;51.60
5466;DHT22;2755;50.728;7.108;2023-02-15T13:14:45;9.90;50.40
5466;DHT22;2755;50.728;7.108;2023-02-15T13:17:12;10.30;53.80
5466;DHT22;2755;50.728;7.108;2023-02-15T13:19:45;9.70;53.30
5466;DHT22;2755;50.728;7.108;2023-02-15T13:22:20;9.30;53.80
5466;DHT22;2755;50.728;7.108;2023-02-15T13:24:56;9.60;53.40
5466;DHT22;2755;50.728;7.108;2023-02-15T13:29:54;9.80;53.60
5466;DHT22;2755;50.728;7.108;2023-02-15T13:32:32;10.00;53.40
5466;DHT22;2755;50.728;7.108;2023-02-15T13:35:04;10.10;50.10
5466;DHT22;2755;50.728;7.108;2023-02-15T13:37:55;10.20;50.30
5466;DHT22;2755;50.728;7.108;2023-02-15T13:40:48;9.70;54.10
5466;DHT22;2755;50.728;7.108;2023-02-15T13:43:22;10.20;54.50
5466;DHT22;2755;50.728;7.108;2023-02-15T13:56:38;10.40;51.20
5466;DHT22;2755;50.728;7.108;2023-02-15T14:13:53;10.20;54.90
5466;DHT22;2755;50.728;7.108;2023-02-15T14:16:36;10.10;52.50
5466;DHT22;2755;50.728;7.108;2023-02-15T14:21:59;9.50;52.70
5466;DHT22;2755;50.728;7.108;2023-02-15T14:29:55;9.90;53.10
5466;DHT22;2755;50.728;7.108;2023-02-15T14:35:03;10.80;54.20
5466;DHT22;2755;50.728;7.108;2023-02-15T14:49:03;10.80;55.70
5466;DHT22;2755;50.728;7.108;2023-02-15T15:02:45;10.00;55.40
5466;DHT22;2755;50.728;7.108;2023-02-15T15:05:29;10.50;54.20
5466;DHT22;2755;50.728;7.108;2023-02-15T15:07:58;10.00;53.70
5466;DHT22;2755;50.728;7.108;2023-02-15T15:16:29;10.30;53.90
5466;DHT22;2755;50.728;7.108;2023-02-15T15:18:56;10.30;54.20
5466;DHT22;2755;50.728;7.108;2023-02-15T15:21:51;10.20;54.10
5466;DHT22;2755;50.728;7.108;2023-02-15T15:27:39;10.40;57.10
5466;DHT22;2755;50.728;7.108;2023-02-15T15:38:00;10.20;54.60
5466;DHT22;2755;50.728;7.108;2023-02-15T15:43:48;10.10;54.50
5466;DHT22;2755;50.728;7.108;2023-02-15T15:48:51;9.90;55.50
5466;DHT22;2755;50.728;7.108;2023-02-15T15:51:25;10.10;57.80
5466;DHT22;2755;50.728;7.108;2023-02-15T15:53:53;10.10;54.70
5466;DHT22;2755;50.728;7.108;2023-02-15T15:56:21;10.00;56.00
5466;DHT22;2755;50.728;7.108;2023-02-15T15:58:56;10.50;56.20
5466;DHT22;2755;50.728;7.108;2023-02-15T16:01:31;10.20;58.90
5466;DHT22;2755;50.728;7.108;2023-02-15T16:04:00;9.50;59.40
5466;DHT22;2755;50.728;7.108;2023-02-15T16:06:34;8.90;57.50
5466;DHT22;2755;50.728;7.108;2023-02-15T16:14:14;10.20;57.80
5466;DHT22;2755;50.728;7.108;2023-02-15T16:16:41;9.90;56.80
5466;DHT22;2755;50.728;7.108;2023-02-15T16:19:19;10.10;58.70
5466;DHT22;2755;50.728;7.108;2023-02-15T16:21:47;10.00;56.40
5466;DHT22;2755;50.728;7.108;2023-02-15T16:29:35;9.80;57.80
5466;DHT22;2755;50.728;7.108;2023-02-15T16:34:55;9.60;58.80
5466;DHT22;2755;50.728;7.108;2023-02-15T16:37:32;9.50;61.50
5466;DHT22;2755;50.728;7.108;2023-02-15T16:39:58;9.60;59.70
5466;DHT22;2755;50.728;7.108;2023-02-15T16:42:24;9.40;60.10
5466;DHT22;2755;50.728;7.108;2023-02-15T16:45:13;9.40;60.60
5466;DHT22;2755;50.728;7.108;2023-02-15T16:47:44;9.50;58.50
5466;DHT22;2755;50.728;7.108;2023-02-15T16:55:33;9.20;60.20
5466;DHT22;2755;50.728;7.108;2023-02-15T16:58:02;9.40;60.20
5466;DHT22;2755;50.728;7.108;2023-02-15T17:00:36;9.20;63.20
5466;DHT22;2755;50.728;7.108;2023-02-15T17:03:05;9.60;60.20
5466;DHT22;2755;50.728;7.108;2023-02-15T17:05:33;9.30;59.60
5466;DHT22;2755;50.728;7.108;2023-02-15T17:13:39;8.90;60.70
5466;DHT22;2755;50.728;7.108;2023-02-15T17:18:40;9.00;61.90
5466;DHT22;2755;50.728;7.108;2023-02-15T17:21:17;8.90;60.90
5466;DHT22;2755;50.728;7.108;2023-02-15T17:23:45;9.10;62.50
5466;DHT22;2755;50.728;7.108;2023-02-15T17:26:26;9.40;65.80
5466;DHT22;2755;50.728;7.108;2023-02-15T17:28:55;8.90;61.00
5466;DHT22;2755;50.728;7.108;2023-02-15T17:31:30;8.90;61.20
5466;DHT22;2755;50.728;7.108;2023-02-15T17:33:58;9.10;62.80
5466;DHT22;2755;50.728;7.108;2023-02-15T17:36:26;8.70;61.90
5466;DHT22;2755;50.728;7.108;2023-02-15T17:43:49;8.20;65.60
5466;DHT22;2755;50.728;7.108;2023-02-15T17:46:14;8.30;62.60
5466;DHT22;2755;50.728;7.108;2023-02-15T17:48:45;8.40;66.10
5466;DHT22;2755;50.728;7.108;2023-02-15T17:51:13;8.70;66.40
5466;DHT22;2755;50.728;7.108;2023-02-15T17:53:40;8.30;62.90
5466;DHT22;2755;50.728;7.108;2023-02-15T17:56:06;8.60;66.70
5466;DHT22;2755;50.728;7.108;2023-02-15T17:58:36;8.50;63.60
5466;DHT22;2755;50.728;7.108;2023-02-15T18:01:05;8.40;66.80
5466;DHT22;2755;50.728;7.108;2023-02-15T18:03:51;8.90;65.00
5466;DHT22;2755;50.728;7.108;2023-02-15T18:06:37;8.20;65.10
5466;DHT22;2755;50.728;7.108;2023-02-15T18:09:23;8.40;68.80
5466;DHT22;2755;50.728;7.108;2023-02-15T18:14:51;8.20;66.10
5466;DHT22;2755;50.728;7.108;2023-02-15T18:19:45;8.40;67.60
5466;DHT22;2755;50.728;7.108;2023-02-15T18:22:12;8.70;69.30
5466;DHT22;2755;50.728;7.108;2023-02-15T18:24:39;8.10;66.50
5466;DHT22;2755;50.728;7.108;2023-02-15T18:27:04;8.00;71.20
5466;DHT22;2755;50.728;7.108;2023-02-15T18:29:30;8.10;71.10
5466;DHT22;2755;50.728;7.108;2023-02-15T18:31:57;8.10;67.50
5466;DHT22;2755;50.728;7.108;2023-02-15T18:34:29;7.90;68.50
5466;DHT22;2755;50.728;7.108;2023-02-15T18:36:56;8.00;71.80
5466;DHT22;2755;50.728;7.108;2023-02-15T18:42:08;7.70;70.60
5466;DHT22;2755;50.728;7.108;2023-02-15T18:49:30;8.50;75.50
5466;DHT22;2755;50.728;7.108;2023-02-15T18:51:55;8.20;76.70
5466;DHT22;2755;50.728;7.108;2023-02-15T18:54:22;7.10;75.10
5466;DHT22;2755;50.728;7.108;2023-02-15T18:56:56;8.00;76.70
5466;DHT22;2755;50.728;7.108;2023-02-15T18:59:24;7.60;73.80
5466;DHT22;2755;50.728;7.108;2023-02-15T19:01:52;7.60;74.50
5466;DHT22;2755;50.728;7.108;2023-02-15T19:04:18;7.40;75.60
5466;DHT22;2755;50.728;7.108;2023-02-15T19:06:46;7.60;78.40
5466;DHT22;2755;50.728;7.108;2023-02-15T19:09:21;7.90;75.80
5466;DHT22;2755;50.728;7.108;2023-02-15T19:11:52;7.40;75.40
5466;DHT22;2755;50.728;7.108;2023-02-15T19:14:23;7.40;74.90
5466;DHT22;2755;50.728;7.108;2023-02-15T19:16:49;7.70;76.60
5466;DHT22;2755;50.728;7.108;2023-02-15T19:19:15;7.20;78.30
5466;DHT22;2755;50.728;7.108;2023-02-15T19:21:43;7.20;77.30
5466;DHT22;2755;50.728;7.108;2023-02-15T19:24:16;7.30;76.80
5466;DHT22;2755;50.728;7.108;2023-02-15T19:26:43;7.80;77.80
5466;DHT22;2755;50.728;7.108;2023-02-15T19:29:16;7.20;77.00
5466;DHT22;2755;50.728;7.108;2023-02-15T19:31:44;7.50;82.80
5466;DHT22;2755;50.728;7.108;2023-02-15T19:34:17;4.20;75.70
5466;DHT22;2755;50.728;7.108;2023-02-15T19:36:44;7.60;80.70
5466;DHT22;2755;50.728;7.108;2023-02-15T19:39:37;7.10;79.50
5466;DHT22;2755;50.728;7.108;2023-02-15T19:44:30;7.30;84.40
5466;DHT22;2755;50.728;7.108;2023-02-15T19:46:55;6.90;83.70
5466;DHT22;2755;50.728;7.108;2023-02-15T19:49:21;6.90;82.30
5466;DHT22;2755;50.728;7.108;2023-02-15T19:51:47;5.00;79.10
5466;DHT22;2755;50.728;7.108;2023-02-15T19:54:31;6.90;81.90
5466;DHT22;2755;50.728;7.108;2023-02-15T19:56:57;6.60;87.20
5466;DHT22;2755;50.728;7.108;2023-02-15T19:59:29;6.70;82.70
5466;DHT22;2755;50.728;7.108;2023-02-15T20:01:56;6.60;84.80
5466;DHT22;2755;50.728;7.108;2023-02-15T20:04:22;6.80;86.10
5466;DHT22;2755;50.728;7.108;2023-02-15T20:06:49;6.70;88.70
5466;DHT22;2755;50.728;7.108;2023-02-15T20:09:32;6.60;86.40
5466;DHT22;2755;50.728;7.108;2023-02-15T20:12:00;6.40;86.50
5466;DHT22;2755;50.728;7.108;2023-02-15T20:14:26;6.90;90.30
5466;DHT22;2755;50.728;7.108;2023-02-15T20:16:51;6.50;90.70
5466;DHT22;2755;50.728;7.108;2023-02-15T20:19:17;6.40;89.30
5466;DHT22;2755;50.728;7.108;2023-02-15T20:21:45;6.00;90.20
5466;DHT22;2755;50.728;7.108;2023-02-15T20:24:18;6.70;89.30
5466;DHT22;2755;50.728;7.108;2023-02-15T20:26:44;6.40;90.80
5466;DHT22;2755;50.728;7.108;2023-02-15T20:29:15;6.20;89.00
5466;DHT22;2755;50.728;7.108;2023-02-15T20:31:42;6.30;89.90
5466;DHT22;2755;50.728;7.108;2023-02-15T20:34:08;6.40;90.80
5466;DHT22;2755;50.728;7.108;2023-02-15T20:36:34;6.40;90.10
5466;DHT22;2755;50.728;7.108;2023-02-15T20:39:02;6.50;91.40
5466;DHT22;2755;50.728;7.108;2023-02-15T20:41:28;6.30;91.20
5466;DHT22;2755;50.728;7.108;2023-02-15T20:44:45;6.50;91.10
5466;DHT22;2755;50.728;7.108;2023-02-15T20:46:46;6.10;91.50
5466;DHT22;2755;50.728;7.108;2023-02-15T20:51:38;6.30;90.80
5466;DHT22;2755;50.728;7.108;2023-02-15T20:54:14;6.20;92.50
5466;DHT22;2755;50.728;7.108;2023-02-15T20:56:40;6.10;92.10
5466;DHT22;2755;50.728;7.108;2023-02-15T20:59:20;6.20;93.30
5466;DHT22;2755;50.728;7.108;2023-02-15T21:01:47;6.20;92.50
5466;DHT22;2755;50.728;7.108;2023-02-15T21:04:29;6.10;91.60
5466;DHT22;2755;50.728;7.108;2023-02-15T21:09:21;6.10;94.70
5466;DHT22;2755;50.728;7.108;2023-02-15T21:14:18;6.00;94.70
5466;DHT22;2755;50.728;7.108;2023-02-15T21:16:44;6.20;93.60
5466;DHT22;2755;50.728;7.108;2023-02-15T21:19:21;6.30;94.90
5466;DHT22;2755;50.728;7.108;2023-02-15T21:21:49;6.40;93.50
5466;DHT22;2755;50.728;7.108;2023-02-15T21:24:22;6.80;95.20
5466;DHT22;2755;50.728;7.108;2023-02-15T21:26:48;6.10;94.60
5466;DHT22;2755;50.728;7.108;2023-02-15T21:29:19;6.00;92.70
5466;DHT22;2755;50.728;7.108;2023-02-15T21:31:46;6.10;92.70
5466;DHT22;2755;50.728;7.108;2023-02-15T21:34:13;6.20;94.50
5466;DHT22;2755;50.728;7.108;2023-02-15T21:36:40;6.00;92.90
5466;DHT22;2755;50.728;7.108;2023-02-15T21:39:16;6.20;94.70
5466;DHT22;2755;50.728;7.108;2023-02-15T21:41:45;6.10;92.50
5466;DHT22;2755;50.728;7.108;2023-02-15T21:44:30;5.90;93.80
5466;DHT22;2755;50.728;7.108;2023-02-15T21:47:26;6.20;92.90
5466;DHT22;2755;50.728;7.108;2023-02-15T21:50:19;6.00;93.50
5466;DHT22;2755;50.728;7.108;2023-02-15T21:53:06;6.50;96.10
5466;DHT22;2755;50.728;7.108;2023-02-15T21:55:32;5.80;96.70
5466;DHT22;2755;50.728;7.108;2023-02-15T21:57:58;5.80;97.20
5466;DHT22;2755;50.728;7.108;2023-02-15T22:00:25;5.70;97.10
5466;DHT22;2755;50.728;7.108;2023-02-15T22:02:54;5.60;98.70
5466;DHT22;2755;50.728;7.108;2023-02-15T22:05:22;5.50;98.90
5466;DHT22;2755;50.728;7.108;2023-02-15T22:07:48;5.10;99.90
5466;DHT22;2755;50.728;7.108;2023-02-15T22:12:41;5.30;99.90
5466;DHT22;2755;50.728;7.108;2023-02-15T22:15:20;5.80;99.90
5466;DHT22;2755;50.728;7.108;2023-02-15T22:17:47;5.10;99.90
5466;DHT22;2755;50.728;7.108;2023-02-15T22:20:23;5.00;99.90
5466;DHT22;2755;50.728;7.108;2023-02-15T22:22:50;4.90;99.90
5466;DHT22;2755;50.728;7.108;2023-02-15T22:25:17;4.80;99.90
5466;DHT22;2755;50.728;7.108;2023-02-15T22:27:44;4.60;99.90
5466;DHT22;2755;50.728;7.108;2023-02-15T22:30:35;4.70;99.90
5466;DHT22;2755;50.728;7.108;2023-02-15T22:33:00;4.80;99.90
5466;DHT22;2755;50.728;7.108;2023-02-15T22:35:32;4.50;99.90
5466;DHT22;2755;50.728;7.108;2023-02-15T22:37:58;4.40;99.90
5466;DHT22;2755;50.728;7.108;2023-02-15T22:40:30;4.50;99.90
5466;DHT22;2755;50.728;7.108;2023-02-15T22:42:58;4.30;99.90
5466;DHT22;2755;50.728;7.108;2023-02-15T22:45:25;4.30;99.90